sensor_id;sensor_type;location;lat;lon;timestamp;pressure;altitude;pressure_sealevel;temperature;humidity
41531;BME280;58990;46.284;13.126;2022-10-17T00:00:31;100431.78;;;14.11;81.79
41531;BME280;58990;46.284;13.126;2022-10-17T00:02:57;100444.19;;;14.11;82.02
41531;BME280;58990;46.284;13.126;2022-10-17T00:05:23;100431.00;;;14.11;82.34
41531;BME280;58990;46.284;13.126;2022-10-17T00:07:49;100436.38;;;14.18;81.79
41531;BME280;58990;46.284;13.126;2022-10-17T00:10:15;100439.03;;;14.18;81.28
41531;BME280;58990;46.284;13.126;2022-10-17T00:12:40;100441.84;;;14.16;81.82
41531;BME280;58990;46.284;13.126;2022-10-17T00:15:06;100444.81;;;14.13;81.90
41531;BME280;58990;46.284;13.126;2022-10-17T00:17:32;100445.31;;;14.17;81.69
41531;BME280;58990;46.284;13.126;2022-10-17T00:19:59;100453.94;;;14.10;81.97
41531;BME280;58990;46.284;13.126;2022-10-17T00:22:25;100453.28;;;14.08;81.93
41531;BME280;58990;46.284;13.126;2022-10-17T00:24:50;100450.31;;;14.03;82.20
41531;BME280;58990;46.284;13.126;2022-10-17T00:27:16;100444.88;;;14.05;82.56
41531;BME280;58990;46.284;13.126;2022-10-17T00:29:41;100443.69;;;14.07;82.29
41531;BME280;58990;46.284;13.126;2022-10-17T00:32:06;100442.72;;;14.08;81.96
41531;BME280;58990;46.284;13.126;2022-10-17T00:34:32;100446.00;;;14.10;82.32
41531;BME280;58990;46.284;13.126;2022-10-17T00:36:57;100444.38;;;14.09;82.24
41531;BME280;58990;46.284;13.126;2022-10-17T00:39:23;100448.00;;;14.08;81.91
41531;BME280;58990;46.284;13.126;2022-10-17T00:41:48;100449.28;;;14.12;81.82
41531;BME280;58990;46.284;13.126;2022-10-17T00:47:09;100447.63;;;14.11;81.67
41531;BME280;58990;46.284;13.126;2022-10-17T00:49:37;100458.84;;;14.13;81.47
41531;BME280;58990;46.284;13.126;2022-10-17T00:52:15;100454.97;;;14.01;82.05
41531;BME280;58990;46.284;13.126;2022-10-17T00:54:48;100457.00;;;13.91;82.37
41531;BME280;58990;46.284;13.126;2022-10-17T00:57:15;100462.63;;;13.88;82.51
41531;BME280;58990;46.284;13.126;2022-10-17T00:59:42;100463.78;;;13.85;82.81
41531;BME280;58990;46.284;13.126;2022-10-17T01:02:13;100457.22;;;13.81;82.98
41531;BME280;58990;46.284;13.126;2022-10-17T01:04:41;100454.41;;;13.83;82.88
41531;BME280;58990;46.284;13.126;2022-10-17T01:07:08;100460.72;;;13.73;83.13
41531;BME280;58990;46.284;13.126;2022-10-17T01:09:34;100447.03;;;13.70;83.20
41531;BME280;58990;46.284;13.126;2022-10-17T01:12:19;100449.00;;;13.76;83.33
41531;BME280;58990;46.284;13.126;2022-10-17T01:37:00;100444.25;;;13.71;82.43
41531;BME280;58990;46.284;13.126;2022-10-17T01:39:41;100442.91;;;13.75;82.43
41531;BME280;58990;46.284;13.126;2022-10-17T01:42:17;100443.91;;;13.74;82.34
41531;BME280;58990;46.284;13.126;2022-10-17T01:58:00;100439.47;;;13.67;82.86
41531;BME280;58990;46.284;13.126;2022-10-17T02:00:29;100447.91;;;13.62;82.98
41531;BME280;58990;46.284;13.126;2022-10-17T02:02:59;100438.03;;;13.56;83.03
41531;BME280;58990;46.284;13.126;2022-10-17T02:05:30;100441.03;;;13.53;83.09
41531;BME280;58990;46.284;13.126;2022-10-17T02:07:57;100429.31;;;13.55;83.06
41531;BME280;58990;46.284;13.126;2022-10-17T02:23:55;100430.03;;;13.72;82.28
41531;BME280;58990;46.284;13.126;2022-10-17T02:26:31;100435.34;;;13.64;82.48
41531;BME280;58990;46.284;13.126;2022-10-17T02:44:58;100435.97;;;13.74;81.40
41531;BME280;58990;46.284;13.126;2022-10-17T02:47:35;100433.06;;;13.61;82.08
41531;BME280;58990;46.284;13.126;2022-10-17T02:50:02;100443.50;;;13.46;82.83
41531;BME280;58990;46.284;13.126;2022-10-17T03:05:37;100450.28;;;13.24;83.92
41531;BME280;58990;46.284;13.126;2022-10-17T03:08:02;100456.41;;;13.24;83.94
41531;BME280;58990;46.284;13.126;2022-10-17T03:10:28;100455.56;;;13.24;83.57
41531;BME280;58990;46.284;13.126;2022-10-17T03:12:53;100452.25;;;13.30;83.59
41531;BME280;58990;46.284;13.126;2022-10-17T03:15:19;100455.22;;;13.35;83.25
41531;BME280;58990;46.284;13.126;2022-10-17T03:17:45;100457.00;;;13.35;83.57
41531;BME280;58990;46.284;13.126;2022-10-17T03:20:10;100459.81;;;13.50;83.02
41531;BME280;58990;46.284;13.126;2022-10-17T03:22:36;100457.16;;;13.58;82.16
41531;BME280;58990;46.284;13.126;2022-10-17T03:25:01;100467.03;;;13.56;81.75
41531;BME280;58990;46.284;13.126;2022-10-17T03:27:27;100473.31;;;13.55;82.09
41531;BME280;58990;46.284;13.126;2022-10-17T03:29:52;100458.81;;;13.51;81.99
41531;BME280;58990;46.284;13.126;2022-10-17T03:32:17;100460.50;;;13.43;82.23
41531;BME280;58990;46.284;13.126;2022-10-17T03:34:43;100460.00;;;13.40;82.25
41531;BME280;58990;46.284;13.126;2022-10-17T03:37:08;100458.03;;;13.42;82.37
41531;BME280;58990;46.284;13.126;2022-10-17T03:39:33;100453.75;;;13.41;82.12
41531;BME280;58990;46.284;13.126;2022-10-17T03:41:59;100455.06;;;13.37;82.11
41531;BME280;58990;46.284;13.126;2022-10-17T03:44:24;100451.59;;;13.28;82.85
41531;BME280;58990;46.284;13.126;2022-10-17T03:46:50;100456.06;;;13.27;82.75
41531;BME280;58990;46.284;13.126;2022-10-17T03:49:15;100457.72;;;13.28;82.83
41531;BME280;58990;46.284;13.126;2022-10-17T03:51:41;100458.88;;;13.26;82.71
41531;BME280;58990;46.284;13.126;2022-10-17T03:54:06;100460.38;;;13.20;82.99
41531;BME280;58990;46.284;13.126;2022-10-17T03:56:31;100461.19;;;13.21;83.13
41531;BME280;58990;46.284;13.126;2022-10-17T03:58:57;100460.53;;;13.19;82.98
41531;BME280;58990;46.284;13.126;2022-10-17T04:01:22;100474.03;;;13.16;83.08
41531;BME280;58990;46.284;13.126;2022-10-17T04:03:50;100471.75;;;13.12;83.39
41531;BME280;58990;46.284;13.126;2022-10-17T04:06:15;100471.41;;;13.07;83.75
41531;BME280;58990;46.284;13.126;2022-10-17T04:08:41;100471.25;;;13.09;84.03
41531;BME280;58990;46.284;13.126;2022-10-17T04:11:07;100479.31;;;13.16;83.28
41531;BME280;58990;46.284;13.126;2022-10-17T04:13:35;100472.06;;;13.18;83.37
41531;BME280;58990;46.284;13.126;2022-10-17T04:16:05;100478.16;;;13.18;83.31
41531;BME280;58990;46.284;13.126;2022-10-17T04:18:32;100474.34;;;13.21;83.09
41531;BME280;58990;46.284;13.126;2022-10-17T04:21:00;100481.94;;;13.16;83.21
41531;BME280;58990;46.284;13.126;2022-10-17T04:23:26;100475.50;;;13.18;83.41
41531;BME280;58990;46.284;13.126;2022-10-17T04:25:55;100473.38;;;13.22;83.28
41531;BME280;58990;46.284;13.126;2022-10-17T04:28:21;100479.16;;;13.25;83.11
41531;BME280;58990;46.284;13.126;2022-10-17T04:30:47;100488.81;;;13.33;82.29
41531;BME280;58990;46.284;13.126;2022-10-17T04:33:12;100486.38;;;13.32;82.75
41531;BME280;58990;46.284;13.126;2022-10-17T04:35:37;100491.19;;;13.36;81.96
41531;BME280;58990;46.284;13.126;2022-10-17T04:38:03;100487.34;;;13.30;82.28
41531;BME280;58990;46.284;13.126;2022-10-17T04:40:28;100488.84;;;13.25;82.42
41531;BME280;58990;46.284;13.126;2022-10-17T04:42:54;100489.69;;;13.17;82.55
41531;BME280;58990;46.284;13.126;2022-10-17T04:45:19;100482.63;;;13.09;83.08
41531;BME280;58990;46.284;13.126;2022-10-17T04:47:44;100493.34;;;13.08;83.08
41531;BME280;58990;46.284;13.126;2022-10-17T04:50:10;100488.38;;;13.05;83.30
41531;BME280;58990;46.284;13.126;2022-10-17T04:52:35;100490.69;;;13.00;83.59
41531;BME280;58990;46.284;13.126;2022-10-17T04:55:04;100488.91;;;12.92;84.00
41531;BME280;58990;46.284;13.126;2022-10-17T04:57:33;100486.56;;;12.89;84.12
41531;BME280;58990;46.284;13.126;2022-10-17T04:59:59;100483.63;;;12.84;84.61
41531;BME280;58990;46.284;13.126;2022-10-17T05:02:24;100491.22;;;12.87;84.40
41531;BME280;58990;46.284;13.126;2022-10-17T05:04:49;100496.13;;;12.90;84.37
41531;BME280;58990;46.284;13.126;2022-10-17T05:07:15;100504.38;;;12.95;83.70
41531;BME280;58990;46.284;13.126;2022-10-17T05:09:40;100497.94;;;12.98;83.79
41531;BME280;58990;46.284;13.126;2022-10-17T05:12:06;100493.50;;;12.98;83.74
41531;BME280;58990;46.284;13.126;2022-10-17T05:14:31;100502.88;;;13.01;83.36
41531;BME280;58990;46.284;13.126;2022-10-17T05:16:56;100507.00;;;13.03;83.26
41531;BME280;58990;46.284;13.126;2022-10-17T05:19:22;100512.59;;;13.00;82.86
41531;BME280;58990;46.284;13.126;2022-10-17T05:21:47;100503.88;;;12.83;83.19
41531;BME280;58990;46.284;13.126;2022-10-17T05:24:13;100513.59;;;12.83;83.67
41531;BME280;58990;46.284;13.126;2022-10-17T05:26:39;100503.53;;;12.78;83.70
41531;BME280;58990;46.284;13.126;2022-10-17T05:29:04;100508.00;;;12.77;83.62
41531;BME280;58990;46.284;13.126;2022-10-17T05:31:30;100502.09;;;12.84;84.11
41531;BME280;58990;46.284;13.126;2022-10-17T05:33:59;100507.53;;;12.90;83.79
41531;BME280;58990;46.284;13.126;2022-10-17T05:36:26;100508.31;;;13.07;83.30
41531;BME280;58990;46.284;13.126;2022-10-17T05:38:51;100504.19;;;13.21;82.63
41531;BME280;58990;46.284;13.126;2022-10-17T05:41:17;100514.22;;;13.34;81.91
41531;BME280;58990;46.284;13.126;2022-10-17T05:43:43;100513.22;;;13.43;81.28
41531;BME280;58990;46.284;13.126;2022-10-17T05:46:09;100521.97;;;13.36;80.99
41531;BME280;58990;46.284;13.126;2022-10-17T05:48:35;100521.47;;;13.32;80.75
41531;BME280;58990;46.284;13.126;2022-10-17T05:51:03;100528.56;;;13.23;81.59
41531;BME280;58990;46.284;13.126;2022-10-17T05:53:31;100528.56;;;13.23;81.17
41531;BME280;58990;46.284;13.126;2022-10-17T05:55:58;100532.00;;;13.24;80.98
41531;BME280;58990;46.284;13.126;2022-10-17T05:58:24;100535.00;;;13.21;81.34
41531;BME280;58990;46.284;13.126;2022-10-17T06:00:50;100536.63;;;13.22;80.93
41531;BME280;58990;46.284;13.126;2022-10-17T06:03:15;100540.94;;;13.23;81.12
41531;BME280;58990;46.284;13.126;2022-10-17T06:05:41;100537.94;;;13.26;80.97
41531;BME280;58990;46.284;13.126;2022-10-17T06:08:06;100542.91;;;13.37;80.62
41531;BME280;58990;46.284;13.126;2022-10-17T06:10:32;100547.34;;;13.45;80.49
41531;BME280;58990;46.284;13.126;2022-10-17T06:12:57;100545.53;;;13.45;79.74
41531;BME280;58990;46.284;13.126;2022-10-17T06:15:23;100551.31;;;13.41;79.75
41531;BME280;58990;46.284;13.126;2022-10-17T06:17:48;100549.63;;;13.32;80.33
41531;BME280;58990;46.284;13.126;2022-10-17T06:20:14;100559.19;;;13.33;79.84
41531;BME280;58990;46.284;13.126;2022-10-17T06:22:39;100552.78;;;13.27;80.09
41531;BME280;58990;46.284;13.126;2022-10-17T06:25:07;100559.69;;;13.28;80.15
41531;BME280;58990;46.284;13.126;2022-10-17T06:27:33;100562.00;;;13.31;79.98
41531;BME280;58990;46.284;13.126;2022-10-17T06:29:58;100563.00;;;13.38;79.89
41531;BME280;58990;46.284;13.126;2022-10-17T06:32:24;100563.50;;;13.42;79.41
41531;BME280;58990;46.284;13.126;2022-10-17T06:34:49;100560.84;;;13.50;79.17
41531;BME280;58990;46.284;13.126;2022-10-17T06:37:14;100568.22;;;13.63;78.79
41531;BME280;58990;46.284;13.126;2022-10-17T06:39:40;100569.22;;;13.70;78.25
41531;BME280;58990;46.284;13.126;2022-10-17T06:42:05;100568.72;;;13.75;77.99
41531;BME280;58990;46.284;13.126;2022-10-17T06:44:31;100576.78;;;13.73;77.95
41531;BME280;58990;46.284;13.126;2022-10-17T06:46:58;100583.69;;;13.83;77.14
41531;BME280;58990;46.284;13.126;2022-10-17T06:49:23;100587.78;;;14.33;75.87
41531;BME280;58990;46.284;13.126;2022-10-17T06:51:49;100580.63;;;16.91;65.11
41531;BME280;58990;46.284;13.126;2022-10-17T06:54:15;100583.34;;;19.60;55.67
41531;BME280;58990;46.284;13.126;2022-10-17T06:56:40;100580.19;;;21.12;50.27
41531;BME280;58990;46.284;13.126;2022-10-17T06:59:06;100589.44;;;21.97;48.40
41531;BME280;58990;46.284;13.126;2022-10-17T07:01:31;100592.56;;;23.28;44.75
41531;BME280;58990;46.284;13.126;2022-10-17T07:04:00;100598.13;;;23.62;43.01
41531;BME280;58990;46.284;13.126;2022-10-17T07:06:25;100589.44;;;22.89;44.36
41531;BME280;58990;46.284;13.126;2022-10-17T07:08:51;100600.16;;;24.19;41.68
41531;BME280;58990;46.284;13.126;2022-10-17T07:11:20;100595.06;;;24.34;40.47
41531;BME280;58990;46.284;13.126;2022-10-17T07:13:46;100599.19;;;25.00;39.66
41531;BME280;58990;46.284;13.126;2022-10-17T07:16:15;100601.84;;;24.83;39.69
41531;BME280;58990;46.284;13.126;2022-10-17T07:18:41;100609.44;;;25.37;38.52
41531;BME280;58990;46.284;13.126;2022-10-17T07:21:07;100604.16;;;25.81;37.78
41531;BME280;58990;46.284;13.126;2022-10-17T07:23:33;100604.50;;;26.07;37.29
41531;BME280;58990;46.284;13.126;2022-10-17T07:26:03;100611.97;;;27.09;35.17
41531;BME280;58990;46.284;13.126;2022-10-17T07:28:32;100616.75;;;27.02;34.90
41531;BME280;58990;46.284;13.126;2022-10-17T07:31:06;100610.66;;;26.57;35.73
41531;BME280;58990;46.284;13.126;2022-10-17T07:33:31;100604.38;;;27.39;34.45
41531;BME280;58990;46.284;13.126;2022-10-17T07:35:58;100610.66;;;27.55;34.03
41531;BME280;58990;46.284;13.126;2022-10-17T07:38:24;100603.44;;;27.60;34.03
41531;BME280;58990;46.284;13.126;2022-10-17T07:40:57;100609.88;;;26.57;35.37
41531;BME280;58990;46.284;13.126;2022-10-17T07:43:24;100612.91;;;27.30;34.38
41531;BME280;58990;46.284;13.126;2022-10-17T07:45:50;100611.75;;;27.53;33.93
41531;BME280;58990;46.284;13.126;2022-10-17T07:48:16;100610.81;;;27.80;33.25
41531;BME280;58990;46.284;13.126;2022-10-17T07:50:42;100619.81;;;27.48;33.81
41531;BME280;58990;46.284;13.126;2022-10-17T07:53:07;100627.88;;;27.11;34.52
41531;BME280;58990;46.284;13.126;2022-10-17T07:55:33;100620.69;;;26.12;36.65
41531;BME280;58990;46.284;13.126;2022-10-17T07:57:58;100612.06;;;25.15;37.96
41531;BME280;58990;46.284;13.126;2022-10-17T08:00:27;100612.94;;;24.58;39.51
41531;BME280;58990;46.284;13.126;2022-10-17T08:02:52;100612.19;;;24.91;38.91
41531;BME280;58990;46.284;13.126;2022-10-17T08:05:17;100609.31;;;24.35;40.10
41531;BME280;58990;46.284;13.126;2022-10-17T08:07:43;100609.25;;;24.18;40.49
41531;BME280;58990;46.284;13.126;2022-10-17T08:10:11;100616.09;;;24.55;39.93
41531;BME280;58990;46.284;13.126;2022-10-17T08:12:37;100609.09;;;24.25;40.32
41531;BME280;58990;46.284;13.126;2022-10-17T08:15:03;100610.91;;;24.07;40.62
41531;BME280;58990;46.284;13.126;2022-10-17T08:17:29;100615.13;;;23.79;41.49
41531;BME280;58990;46.284;13.126;2022-10-17T08:19:56;100608.72;;;24.04;41.51
41531;BME280;58990;46.284;13.126;2022-10-17T08:22:21;100606.59;;;24.06;41.44
41531;BME280;58990;46.284;13.126;2022-10-17T08:24:47;100611.78;;;23.48;42.76
41531;BME280;58990;46.284;13.126;2022-10-17T08:27:12;100605.84;;;23.70;42.91
41531;BME280;58990;46.284;13.126;2022-10-17T08:29:39;100610.00;;;23.78;41.48
41531;BME280;58990;46.284;13.126;2022-10-17T08:32:05;100603.03;;;23.77;42.02
41531;BME280;58990;46.284;13.126;2022-10-17T08:34:31;100602.19;;;23.76;42.11
41531;BME280;58990;46.284;13.126;2022-10-17T08:36:57;100608.16;;;23.78;42.16
41531;BME280;58990;46.284;13.126;2022-10-17T08:39:22;100596.34;;;24.03;42.95
41531;BME280;58990;46.284;13.126;2022-10-17T08:55:36;100598.00;;;24.33;40.82
41531;BME280;58990;46.284;13.126;2022-10-17T08:58:11;100599.63;;;24.05;41.97
41531;BME280;58990;46.284;13.126;2022-10-17T09:00:37;100594.47;;;24.44;40.53
41531;BME280;58990;46.284;13.126;2022-10-17T09:19:09;100578.66;;;25.28;39.16
41531;BME280;58990;46.284;13.126;2022-10-17T09:21:46;100585.34;;;25.08;39.95
41531;BME280;58990;46.284;13.126;2022-10-17T09:24:27;100584.53;;;25.42;40.18
41531;BME280;58990;46.284;13.126;2022-10-17T09:26:57;100588.09;;;25.47;38.94
41531;BME280;58990;46.284;13.126;2022-10-17T09:29:25;100584.22;;;25.38;39.31
41531;BME280;58990;46.284;13.126;2022-10-17T09:31:59;100577.22;;;25.37;38.60
41531;BME280;58990;46.284;13.126;2022-10-17T09:34:27;100575.88;;;25.57;39.76
41531;BME280;58990;46.284;13.126;2022-10-17T09:36:53;100587.75;;;25.61;38.97
41531;BME280;58990;46.284;13.126;2022-10-17T09:39:22;100576.13;;;25.77;38.88
41531;BME280;58990;46.284;13.126;2022-10-17T09:41:53;100575.44;;;25.87;39.17
41531;BME280;58990;46.284;13.126;2022-10-17T10:00:20;100583.16;;;26.50;37.95
41531;BME280;58990;46.284;13.126;2022-10-17T10:02:46;100583.16;;;26.77;36.46
41531;BME280;58990;46.284;13.126;2022-10-17T10:05:17;100591.38;;;26.93;36.81
41531;BME280;58990;46.284;13.126;2022-10-17T10:07:58;100586.91;;;26.76;36.36
41531;BME280;58990;46.284;13.126;2022-10-17T10:10:26;100588.56;;;27.15;36.31
41531;BME280;58990;46.284;13.126;2022-10-17T10:15:44;100596.38;;;27.16;35.92
41531;BME280;58990;46.284;13.126;2022-10-17T10:18:34;100595.84;;;27.19;36.29
41531;BME280;58990;46.284;13.126;2022-10-17T10:38:09;100589.97;;;27.23;35.83
41531;BME280;58990;46.284;13.126;2022-10-17T10:40:44;100580.25;;;27.64;34.92
41531;BME280;58990;46.284;13.126;2022-10-17T10:43:25;100587.97;;;27.45;35.00
41531;BME280;58990;46.284;13.126;2022-10-17T10:45:55;100590.00;;;27.33;34.38
41531;BME280;58990;46.284;13.126;2022-10-17T10:48:35;100581.66;;;27.77;34.16
41531;BME280;58990;46.284;13.126;2022-10-17T10:51:13;100577.06;;;27.83;34.04
41531;BME280;58990;46.284;13.126;2022-10-17T10:56:32;100578.22;;;27.39;34.95
41531;BME280;58990;46.284;13.126;2022-10-17T11:20:31;100567.84;;;27.20;35.10
41531;BME280;58990;46.284;13.126;2022-10-17T11:23:08;100561.25;;;27.01;34.00
41531;BME280;58990;46.284;13.126;2022-10-17T11:25:37;100565.00;;;27.00;36.40
41531;BME280;58990;46.284;13.126;2022-10-17T11:28:11;100560.59;;;27.26;35.77
41531;BME280;58990;46.284;13.126;2022-10-17T11:36:18;100563.13;;;26.68;36.24
41531;BME280;58990;46.284;13.126;2022-10-17T11:38:57;100562.19;;;26.84;36.04
41531;BME280;58990;46.284;13.126;2022-10-17T11:41:36;100559.19;;;26.21;36.95
41531;BME280;58990;46.284;13.126;2022-10-17T11:44:27;100557.31;;;25.77;37.28
41531;BME280;58990;46.284;13.126;2022-10-17T11:46:59;100547.38;;;26.00;37.36
41531;BME280;58990;46.284;13.126;2022-10-17T11:49:32;100549.84;;;25.84;37.34
41531;BME280;58990;46.284;13.126;2022-10-17T12:03:28;100535.28;;;25.80;39.05
41531;BME280;58990;46.284;13.126;2022-10-17T12:11:36;100534.09;;;25.71;39.82
41531;BME280;58990;46.284;13.126;2022-10-17T12:14:33;100530.13;;;25.51;39.54
41531;BME280;58990;46.284;13.126;2022-10-17T12:17:00;100523.94;;;25.73;39.76
41531;BME280;58990;46.284;13.126;2022-10-17T12:19:28;100521.34;;;25.39;39.99
41531;BME280;58990;46.284;13.126;2022-10-17T12:24:37;100523.28;;;24.71;41.34
41531;BME280;58990;46.284;13.126;2022-10-17T12:27:31;100527.84;;;24.70;41.71
41531;BME280;58990;46.284;13.126;2022-10-17T12:35:41;100507.84;;;24.32;42.59
41531;BME280;58990;46.284;13.126;2022-10-17T12:40:55;100515.63;;;24.62;41.67
41531;BME280;58990;46.284;13.126;2022-10-17T12:46:03;100513.06;;;24.56;41.97
41531;BME280;58990;46.284;13.126;2022-10-17T12:54:13;100510.41;;;24.10;43.66
41531;BME280;58990;46.284;13.126;2022-10-17T12:56:46;100504.00;;;24.28;43.36
41531;BME280;58990;46.284;13.126;2022-10-17T13:01:53;100509.38;;;24.28;43.40
41531;BME280;58990;46.284;13.126;2022-10-17T13:04:20;100510.22;;;24.45;44.12
41531;BME280;58990;46.284;13.126;2022-10-17T13:06:48;100507.53;;;24.45;43.59
41531;BME280;58990;46.284;13.126;2022-10-17T13:12:12;100511.06;;;24.63;43.36
41531;BME280;58990;46.284;13.126;2022-10-17T13:14:40;100508.50;;;24.39;43.89
41531;BME280;58990;46.284;13.126;2022-10-17T13:17:21;100507.06;;;24.48;43.94
41531;BME280;58990;46.284;13.126;2022-10-17T13:19:46;100510.41;;;24.10;44.50
41531;BME280;58990;46.284;13.126;2022-10-17T13:22:17;100507.19;;;23.96;44.69
41531;BME280;58990;46.284;13.126;2022-10-17T13:24:44;100498.47;;;23.89;45.68
41531;BME280;58990;46.284;13.126;2022-10-17T13:27:29;100501.63;;;24.14;44.82
41531;BME280;58990;46.284;13.126;2022-10-17T13:29:58;100504.22;;;24.09;44.58
41531;BME280;58990;46.284;13.126;2022-10-17T13:32:25;100505.19;;;24.03;45.78
41531;BME280;58990;46.284;13.126;2022-10-17T13:35:12;100504.69;;;24.06;44.81
41531;BME280;58990;46.284;13.126;2022-10-17T13:37:44;100507.84;;;24.03;45.60
41531;BME280;58990;46.284;13.126;2022-10-17T13:40:16;100502.41;;;23.98;46.06
41531;BME280;58990;46.284;13.126;2022-10-17T13:42:42;100501.09;;;24.00;45.59
41531;BME280;58990;46.284;13.126;2022-10-17T13:47:53;100504.22;;;24.09;45.00
41531;BME280;58990;46.284;13.126;2022-10-17T13:50:24;100504.97;;;23.93;44.82
41531;BME280;58990;46.284;13.126;2022-10-17T13:53:18;100505.91;;;23.87;45.34
41531;BME280;58990;46.284;13.126;2022-10-17T13:58:41;100503.63;;;23.78;46.64
41531;BME280;58990;46.284;13.126;2022-10-17T14:01:07;100501.78;;;23.67;47.05
41531;BME280;58990;46.284;13.126;2022-10-17T14:03:33;100507.00;;;23.74;45.58
41531;BME280;58990;46.284;13.126;2022-10-17T14:06:02;100501.25;;;23.94;45.24
41531;BME280;58990;46.284;13.126;2022-10-17T14:08:30;100503.47;;;23.85;45.29
41531;BME280;58990;46.284;13.126;2022-10-17T14:10:56;100506.63;;;23.94;45.52
41531;BME280;58990;46.284;13.126;2022-10-17T14:16:02;100511.19;;;23.81;45.71
41531;BME280;58990;46.284;13.126;2022-10-17T14:18:32;100504.34;;;23.62;45.42
41531;BME280;58990;46.284;13.126;2022-10-17T14:20:58;100506.56;;;23.65;45.80
41531;BME280;58990;46.284;13.126;2022-10-17T14:23:40;100506.09;;;23.68;46.00
41531;BME280;58990;46.284;13.126;2022-10-17T14:29:04;100514.22;;;23.73;45.45
41531;BME280;58990;46.284;13.126;2022-10-17T14:31:34;100507.84;;;23.62;45.71
41531;BME280;58990;46.284;13.126;2022-10-17T14:34:02;100512.09;;;23.75;45.63
41531;BME280;58990;46.284;13.126;2022-10-17T14:36:31;100508.75;;;23.68;45.40
41531;BME280;58990;46.284;13.126;2022-10-17T14:38:57;100503.88;;;23.65;46.44
41531;BME280;58990;46.284;13.126;2022-10-17T14:41:31;100509.44;;;23.75;46.47
41531;BME280;58990;46.284;13.126;2022-10-17T14:44:03;100504.28;;;23.85;45.74
41531;BME280;58990;46.284;13.126;2022-10-17T14:46:31;100513.75;;;23.76;45.43
41531;BME280;58990;46.284;13.126;2022-10-17T14:49:14;100506.47;;;23.60;45.59
41531;BME280;58990;46.284;13.126;2022-10-17T14:54:53;100505.78;;;23.52;45.50
41531;BME280;58990;46.284;13.126;2022-10-17T14:59:59;100509.06;;;23.31;45.13
41531;BME280;58990;46.284;13.126;2022-10-17T15:02:27;100511.16;;;23.29;45.62
41531;BME280;58990;46.284;13.126;2022-10-17T15:04:53;100510.22;;;23.35;45.77
41531;BME280;58990;46.284;13.126;2022-10-17T15:07:18;100506.50;;;23.36;45.70
41531;BME280;58990;46.284;13.126;2022-10-17T15:09:47;100503.38;;;23.27;45.38
41531;BME280;58990;46.284;13.126;2022-10-17T15:12:15;100511.41;;;23.15;45.83
41531;BME280;58990;46.284;13.126;2022-10-17T15:14:42;100508.56;;;23.10;45.67
41531;BME280;58990;46.284;13.126;2022-10-17T15:17:13;100505.91;;;23.10;46.44
41531;BME280;58990;46.284;13.126;2022-10-17T15:19:39;100508.34;;;23.00;46.19
41531;BME280;58990;46.284;13.126;2022-10-17T15:22:04;100511.59;;;23.02;46.82
41531;BME280;58990;46.284;13.126;2022-10-17T15:24:30;100511.84;;;23.00;46.53
41531;BME280;58990;46.284;13.126;2022-10-17T15:26:55;100506.84;;;22.92;47.17
41531;BME280;58990;46.284;13.126;2022-10-17T15:29:23;100513.09;;;22.86;47.54
41531;BME280;58990;46.284;13.126;2022-10-17T15:31:49;100512.53;;;22.84;47.62
41531;BME280;58990;46.284;13.126;2022-10-17T15:34:14;100513.22;;;22.79;47.36
41531;BME280;58990;46.284;13.126;2022-10-17T15:36:41;100515.31;;;22.77;47.74
41531;BME280;58990;46.284;13.126;2022-10-17T15:39:08;100522.84;;;22.68;48.23
41531;BME280;58990;46.284;13.126;2022-10-17T15:41:34;100522.13;;;22.49;48.72
41531;BME280;58990;46.284;13.126;2022-10-17T15:43:59;100525.59;;;22.38;49.24
41531;BME280;58990;46.284;13.126;2022-10-17T15:46:27;100519.88;;;22.34;49.28
41531;BME280;58990;46.284;13.126;2022-10-17T15:48:54;100520.94;;;22.45;50.98
41531;BME280;58990;46.284;13.126;2022-10-17T15:51:20;100521.72;;;22.34;52.07
41531;BME280;58990;46.284;13.126;2022-10-17T15:53:46;100521.88;;;22.21;52.77
41531;BME280;58990;46.284;13.126;2022-10-17T15:56:22;100517.09;;;22.11;53.79
41531;BME280;58990;46.284;13.126;2022-10-17T15:58:48;100514.22;;;21.75;54.91
41531;BME280;58990;46.284;13.126;2022-10-17T16:01:26;100516.31;;;21.55;55.48
41531;BME280;58990;46.284;13.126;2022-10-17T16:03:52;100520.59;;;21.37;56.23
41531;BME280;58990;46.284;13.126;2022-10-17T16:06:19;100523.44;;;21.17;57.36
41531;BME280;58990;46.284;13.126;2022-10-17T16:08:45;100523.63;;;20.97;58.00
41531;BME280;58990;46.284;13.126;2022-10-17T16:11:16;100526.22;;;20.78;57.90
41531;BME280;58990;46.284;13.126;2022-10-17T16:13:49;100525.03;;;20.67;59.40
41531;BME280;58990;46.284;13.126;2022-10-17T16:16:15;100532.84;;;20.37;61.94
41531;BME280;58990;46.284;13.126;2022-10-17T16:18:40;100529.19;;;20.31;62.63
41531;BME280;58990;46.284;13.126;2022-10-17T16:21:10;100530.91;;;20.19;63.42
41531;BME280;58990;46.284;13.126;2022-10-17T16:23:36;100524.19;;;20.10;63.47
41531;BME280;58990;46.284;13.126;2022-10-17T16:26:02;100540.81;;;20.05;63.06
41531;BME280;58990;46.284;13.126;2022-10-17T16:28:27;100538.22;;;19.85;62.95
41531;BME280;58990;46.284;13.126;2022-10-17T16:30:53;100541.72;;;19.86;62.47
41531;BME280;58990;46.284;13.126;2022-10-17T16:33:19;100534.94;;;19.76;62.80
41531;BME280;58990;46.284;13.126;2022-10-17T16:35:44;100542.34;;;19.61;63.46
41531;BME280;58990;46.284;13.126;2022-10-17T16:38:11;100541.59;;;19.40;64.83
41531;BME280;58990;46.284;13.126;2022-10-17T16:40:37;100536.25;;;19.40;64.68